createdAt,value
2014-06-25T17:00:49.251Z,100852
2014-06-25T17:01:07.751Z,100858
2014-06-25T17:01:26.266Z,100844
2014-06-25T17:01:44.783Z,100844
2014-06-25T17:02:03.283Z,100852
2014-06-25T17:02:21.799Z,100836
2014-06-25T17:02:40.302Z,100852
2014-06-25T17:02:58.661Z,100844
2014-06-25T17:03:17.161Z,100830
2014-06-25T17:03:35.661Z,100847
2014-06-25T17:03:54.178Z,100836
2014-06-25T17:04:12.537Z,100839
2014-06-25T17:04:31.037Z,100839
2014-06-25T17:04:49.539Z,100847
2014-06-25T17:05:09.914Z,100839
2014-06-25T17:05:27.664Z,100844
2014-06-25T17:05:46.166Z,100855
2014-06-25T17:06:04.666Z,100850
2014-06-25T17:06:23.166Z,100836
2014-06-25T17:06:41.668Z,100852
2014-06-25T17:07:00.027Z,100847
2014-06-25T17:07:18.543Z,100839
2014-06-25T17:07:37.043Z,100852
2014-06-25T17:07:55.545Z,100855
2014-06-25T17:08:14.076Z,100844
2014-06-25T17:08:31.779Z,100847
2014-06-25T17:08:50.280Z,100847
2014-06-25T17:09:08.812Z,100847
2014-06-25T17:09:27.312Z,100850
2014-06-25T17:09:45.815Z,100844
2014-06-25T17:10:04.190Z,100839
2014-06-25T17:10:22.690Z,100839
2014-06-25T17:10:41.192Z,100825
2014-06-25T17:10:59.551Z,100837
2014-06-25T17:11:18.082Z,100843
2014-06-25T17:11:36.582Z,100837
2014-06-25T17:11:54.943Z,100822
2014-06-25T17:12:13.458Z,100822
2014-06-25T17:12:31.333Z,100819
2014-06-25T17:12:49.855Z,100816
2014-06-25T17:13:08.355Z,100814
2014-06-25T17:13:26.855Z,100813
2014-06-25T17:13:45.410Z,100805
2014-06-25T17:14:03.707Z,100810
2014-06-25T17:14:22.441Z,100802
2014-06-25T17:14:40.980Z,100807
2014-06-25T17:14:59.480Z,100802
2014-06-25T17:15:17.980Z,100804
2014-06-25T17:15:36.480Z,100804
2014-06-25T17:15:54.911Z,100804
2014-06-25T17:16:13.411Z,100813
2014-06-25T17:16:31.911Z,100816
2014-06-25T17:16:50.465Z,100810
2014-06-25T17:17:08.965Z,100819
2014-06-25T17:17:26.840Z,100801
2014-06-25T17:17:45.382Z,100807
2014-06-25T17:18:03.241Z,100805
2014-06-25T17:18:21.757Z,100808
2014-06-25T17:18:40.273Z,100820
2014-06-25T17:18:58.789Z,100817
2014-06-25T17:19:17.336Z,100820
2014-06-25T17:19:35.820Z,100824
2014-06-25T17:19:53.585Z,100818
2014-06-25T17:20:12.085Z,100812
2014-06-25T17:20:30.585Z,100824
2014-06-25T17:20:49.459Z,100827
2014-06-25T17:21:07.819Z,100827
2014-06-25T17:21:26.319Z,100821
2014-06-25T17:21:44.757Z,100833
2014-06-25T17:22:03.257Z,100830
2014-06-25T17:22:21.757Z,100844
2014-06-25T17:22:39.517Z,100830
2014-06-25T17:22:58.017Z,100839
2014-06-25T17:23:16.517Z,100844
2014-06-25T17:23:35.017Z,100844
2014-06-25T17:23:53.570Z,100850
2014-06-25T17:24:12.133Z,100859
2014-06-25T17:24:29.977Z,100853
2014-06-25T17:24:48.499Z,100856
2014-06-25T17:25:06.359Z,100856
2014-06-25T17:25:24.859Z,100862
2014-06-25T17:25:43.365Z,100871
2014-06-25T17:26:01.662Z,100873
2014-06-25T17:26:20.396Z,100873
2014-06-25T17:26:38.896Z,100879
2014-06-25T17:26:57.419Z,100879
2014-06-25T17:27:15.294Z,100878
2014-06-25T17:27:33.794Z,100875
2014-06-25T17:27:51.533Z,100887
2014-06-25T17:28:10.033Z,100884
2014-06-25T17:28:28.533Z,100880
2014-06-25T17:28:47.053Z,100883
2014-06-25T17:29:05.568Z,100871
2014-06-25T17:29:24.068Z,100880
2014-06-25T17:29:42.571Z,100877
2014-06-25T17:30:01.071Z,100868
2014-06-25T17:30:19.587Z,100868
2014-06-25T17:30:38.087Z,100868
2014-06-25T17:30:56.590Z,100862
2014-06-25T17:31:15.105Z,100859
2014-06-25T17:31:33.605Z,100862
2014-06-25T17:31:52.109Z,100867
2014-06-25T17:32:10.609Z,100864
2014-06-25T17:32:29.109Z,100870
2014-06-25T17:32:47.612Z,100876
2014-06-25T17:33:05.472Z,100873
2014-06-25T17:33:24.003Z,100870
2014-06-25T17:33:42.521Z,100873
2014-06-25T17:34:00.880Z,100876
2014-06-25T17:34:19.380Z,100876
2014-06-25T17:34:37.927Z,100873
2014-06-25T17:34:56.430Z,100875
2014-06-25T17:35:14.321Z,100872
2014-06-25T17:35:32.821Z,100869
2014-06-25T17:35:51.416Z,100869
2014-06-25T17:36:09.838Z,100869
2014-06-25T17:36:28.338Z,100872
2014-06-25T17:36:46.841Z,100869
2014-06-25T17:37:05.388Z,100875
2014-06-25T17:37:23.841Z,100872
2014-06-25T17:37:42.438Z,100875
2014-06-25T17:38:00.313Z,100875
2014-06-25T17:38:18.813Z,100866
2014-06-25T17:38:37.313Z,100869
2014-06-25T17:38:55.815Z,100854
2014-06-25T17:39:14.393Z,100869
2014-06-25T17:39:32.893Z,100875
2014-06-25T17:39:51.395Z,100863
2014-06-25T17:40:09.911Z,100869
2014-06-25T17:40:28.270Z,100869
2014-06-25T17:40:46.773Z,100872
2014-06-25T17:41:05.273Z,100860
2014-06-25T17:41:23.789Z,100860
2014-06-25T17:41:42.150Z,100866
2014-06-25T17:42:00.666Z,100866
2014-06-25T17:42:19.150Z,100866
2014-06-25T17:42:37.650Z,100866
2014-06-25T17:42:56.152Z,100857
2014-06-25T17:43:14.683Z,100854
2014-06-25T17:43:33.199Z,100863
2014-06-25T17:43:51.732Z,100854
2014-06-25T17:44:10.217Z,100865
2014-06-25T17:44:28.717Z,100865
2014-06-25T17:44:47.219Z,100860
2014-06-25T17:45:05.734Z,100868
2014-06-25T17:45:24.406Z,100865
2014-06-25T17:45:42.281Z,100845
2014-06-25T17:46:00.782Z,100859
2014-06-25T17:46:19.282Z,100854
2014-06-25T17:46:37.798Z,100859
2014-06-25T17:46:56.300Z,100862
2014-06-25T17:47:14.675Z,100859
2014-06-25T17:47:33.175Z,100851
2014-06-25T17:47:51.708Z,100856
2014-06-25T17:48:10.067Z,100862
2014-06-25T17:48:28.567Z,100856
2014-06-25T17:48:47.085Z,100856
2014-06-25T17:49:05.585Z,100862
2014-06-25T17:49:24.085Z,100854
2014-06-25T17:49:42.585Z,100865
2014-06-25T17:50:00.994Z,100854
2014-06-25T17:50:19.682Z,100868
2014-06-25T17:50:38.041Z,100856
2014-06-25T17:50:56.543Z,100859
2014-06-25T17:51:15.043Z,100851
2014-06-25T17:51:33.543Z,100865
2014-06-25T17:51:52.060Z,100865
2014-06-25T17:52:10.669Z,100856
2014-06-25T17:52:29.091Z,100853
2014-06-25T17:52:47.468Z,100859
2014-06-25T17:53:05.968Z,100856
2014-06-25T17:53:24.359Z,100848
2014-06-25T17:53:42.859Z,100865
2014-06-25T17:54:01.361Z,100871
2014-06-25T17:54:19.095Z,100868
2014-06-25T17:54:37.611Z,100856
2014-06-25T17:54:56.113Z,100862
2014-06-25T17:55:14.613Z,100859
2014-06-25T17:55:33.144Z,100868
2014-06-25T17:55:51.630Z,100859
2014-06-25T17:56:10.130Z,100856
2014-06-25T17:56:28.677Z,100865
2014-06-25T17:56:47.179Z,100862
2014-06-25T17:57:05.679Z,100868
2014-06-25T17:57:24.179Z,100868
2014-06-25T17:57:42.679Z,100868
2014-06-25T17:58:01.197Z,100868
2014-06-25T17:58:19.556Z,100862
2014-06-25T17:58:37.915Z,100868
2014-06-25T17:58:56.433Z,100874
2014-06-25T17:59:14.933Z,100862
2014-06-25T17:59:33.324Z,100868
2014-06-25T17:59:51.826Z,100862
2014-06-25T18:00:10.310Z,100868
2014-06-25T18:00:28.810Z,100865
2014-06-25T18:00:47.343Z,100862
2014-06-25T18:01:05.687Z,100862
2014-06-25T18:01:24.187Z,100859
2014-06-25T18:01:42.687Z,100865
2014-06-25T18:02:01.189Z,100862
2014-06-25T18:02:19.705Z,100868
2014-06-25T18:02:38.189Z,100865
2014-06-25T18:02:56.691Z,100870
2014-06-25T18:03:15.191Z,100865
2014-06-25T18:03:33.582Z,100868
2014-06-25T18:03:51.927Z,100868
2014-06-25T18:04:10.427Z,100862
2014-06-25T18:04:28.802Z,100876
2014-06-25T18:04:46.679Z,100873
2014-06-25T18:05:05.179Z,100870
2014-06-25T18:05:23.695Z,100882
2014-06-25T18:05:42.179Z,100865
2014-06-25T18:06:00.681Z,100870
2014-06-25T18:06:19.181Z,100882
2014-06-25T18:06:37.681Z,100876
2014-06-25T18:06:56.183Z,100879
2014-06-25T18:07:14.683Z,100873
2014-06-25T18:07:33.183Z,100876
2014-06-25T18:07:51.701Z,100879
2014-06-25T18:08:10.201Z,100879
2014-06-25T18:08:28.060Z,100879
2014-06-25T18:08:45.936Z,100873
2014-06-25T18:09:04.515Z,100888
2014-06-25T18:09:23.015Z,100873
2014-06-25T18:09:41.515Z,100882
2014-06-25T18:09:59.392Z,100882
2014-06-25T18:10:17.876Z,100882
2014-06-25T18:10:36.376Z,100888
2014-06-25T18:10:54.894Z,100879
2014-06-25T18:11:13.222Z,100879
2014-06-25T18:11:31.909Z,100891
2014-06-25T18:11:50.286Z,100882
2014-06-25T18:12:08.786Z,100879
2014-06-25T18:12:27.286Z,100885
2014-06-25T18:12:45.677Z,100891
2014-06-25T18:13:04.179Z,100879
2014-06-25T18:13:22.679Z,100882
2014-06-25T18:13:41.226Z,100882
2014-06-25T18:13:59.586Z,100894
2014-06-25T18:14:17.961Z,100882
2014-06-25T18:14:36.461Z,100885
2014-06-25T18:14:55.261Z,100885
2014-06-25T18:15:13.761Z,100879
2014-06-25T18:15:32.261Z,100882
2014-06-25T18:15:50.762Z,100876
2014-06-25T18:16:09.137Z,100879
2014-06-25T18:16:27.496Z,100871
2014-06-25T18:16:46.012Z,100871
2014-06-25T18:17:04.514Z,100873
2014-06-25T18:17:23.014Z,100891
2014-06-25T18:17:40.889Z,100876
2014-06-25T18:17:59.391Z,100882
2014-06-25T18:18:17.254Z,100879
2014-06-25T18:18:35.754Z,100879
2014-06-25T18:18:54.256Z,100879
2014-06-25T18:19:12.631Z,100882
2014-06-25T18:19:31.131Z,100876
2014-06-25T18:19:49.633Z,100879
2014-06-25T18:20:08.133Z,100882
2014-06-25T18:20:26.946Z,100882
2014-06-25T18:20:45.446Z,100882
2014-06-25T18:21:03.964Z,100882
2014-06-25T18:21:22.464Z,100885
2014-06-25T18:21:40.964Z,100888
2014-06-25T18:21:59.465Z,100885
2014-06-25T18:22:17.840Z,100891
2014-06-25T18:22:35.575Z,100879
2014-06-25T18:22:53.452Z,100876
2014-06-25T18:23:11.311Z,100891
2014-06-25T18:23:29.827Z,100891
2014-06-25T18:23:48.186Z,100885
2014-06-25T18:24:06.688Z,100885
2014-06-25T18:24:25.063Z,100885
2014-06-25T18:24:43.563Z,100879
2014-06-25T18:25:02.065Z,100885
2014-06-25T18:25:19.940Z,100882
2014-06-25T18:25:38.440Z,100882
2014-06-25T18:25:56.833Z,100876
2014-06-25T18:26:15.333Z,100888
2014-06-25T18:26:33.833Z,100882
2014-06-25T18:26:52.192Z,100885
2014-06-25T18:27:10.694Z,100891
2014-06-25T18:27:29.069Z,100885
2014-06-25T18:27:47.569Z,100882
2014-06-25T18:28:06.071Z,100891
2014-06-25T18:28:24.571Z,100888
2014-06-25T18:28:43.071Z,100888
2014-06-25T18:29:01.432Z,100882
2014-06-25T18:29:19.932Z,100873
2014-06-25T18:29:37.807Z,100888
2014-06-25T18:29:56.309Z,100891
2014-06-25T18:30:14.809Z,100891
2014-06-25T18:30:33.309Z,100885
2014-06-25T18:30:51.684Z,100888
2014-06-25T18:31:09.545Z,100888
2014-06-25T18:31:27.920Z,100879
2014-06-25T18:31:46.420Z,100885
2014-06-25T18:32:04.922Z,100888
2014-06-25T18:32:23.422Z,100882
2014-06-25T18:32:41.922Z,100885
2014-06-25T18:33:00.425Z,100882
2014-06-25T18:33:18.284Z,100882
2014-06-25T18:33:36.784Z,100882
2014-06-25T18:33:55.161Z,100879
2014-06-25T18:34:13.661Z,100879
2014-06-25T18:34:32.161Z,100882
2014-06-25T18:34:50.521Z,100882
2014-06-25T18:35:09.022Z,100888
2014-06-25T18:35:27.522Z,100882
2014-06-25T18:35:46.100Z,100879
2014-06-25T18:36:04.383Z,100873
2014-06-25T18:36:22.883Z,100894
2014-06-25T18:36:41.383Z,100882
2014-06-25T18:36:59.760Z,100879
2014-06-25T18:37:18.260Z,100885
2014-06-25T18:37:36.635Z,100888
2014-06-25T18:37:54.994Z,100891
2014-06-25T18:38:13.496Z,100905
2014-06-25T18:38:31.996Z,100879
2014-06-25T18:38:50.496Z,100885
2014-06-25T18:39:08.998Z,100891
2014-06-25T18:39:27.498Z,100882
2014-06-25T18:39:46.014Z,100891
2014-06-25T18:40:04.532Z,100888
2014-06-25T18:40:23.032Z,100876
2014-06-25T18:40:41.532Z,100888
2014-06-25T18:40:59.266Z,100888
2014-06-25T18:41:17.768Z,100891
2014-06-25T18:41:36.268Z,100888
2014-06-25T18:41:54.127Z,100873
2014-06-25T18:42:12.629Z,100899
2014-06-25T18:42:31.129Z,100882
2014-06-25T18:42:49.629Z,100882
2014-06-25T18:43:08.131Z,100894
2014-06-25T18:43:26.616Z,100885
2014-06-25T18:43:45.116Z,100891
2014-06-25T18:44:03.618Z,100882
2014-06-25T18:44:21.993Z,100891
2014-06-25T18:44:40.493Z,100879
2014-06-25T18:44:58.383Z,100894
2014-06-25T18:45:16.728Z,100879
2014-06-25T18:45:35.228Z,100894
2014-06-25T18:45:53.728Z,100888
2014-06-25T18:46:12.231Z,100894
2014-06-25T18:46:30.090Z,100885
2014-06-25T18:46:48.590Z,100888
2014-06-25T18:47:06.967Z,100891
2014-06-25T18:47:25.467Z,100891
2014-06-25T18:47:43.952Z,100888
2014-06-25T18:48:02.329Z,100888
2014-06-25T18:48:20.829Z,100885
2014-06-25T18:48:39.313Z,100888
2014-06-25T18:48:57.813Z,100879
2014-06-25T18:49:16.189Z,100885
2014-06-25T18:49:34.689Z,100891
2014-06-25T18:49:53.189Z,100888
2014-06-25T18:50:11.552Z,100896
2014-06-25T18:50:29.942Z,100879
2014-06-25T18:50:48.442Z,100891
2014-06-25T18:51:06.318Z,100891
2014-06-25T18:51:24.818Z,100896
2014-06-25T18:51:43.318Z,100896
2014-06-25T18:52:01.820Z,100899
2014-06-25T18:52:20.180Z,100891
2014-06-25T18:52:38.039Z,100885
2014-06-25T18:52:56.539Z,100896
2014-06-25T18:53:14.275Z,100888
2014-06-25T18:53:32.775Z,100896
2014-06-25T18:53:50.666Z,100899
2014-06-25T18:54:09.152Z,100896
2014-06-25T18:54:27.652Z,100902
2014-06-25T18:54:46.152Z,100899
2014-06-25T18:55:04.654Z,100905
2014-06-25T18:55:23.154Z,100905
2014-06-25T18:55:41.529Z,100899
2014-06-25T18:56:00.014Z,100896
2014-06-25T18:56:17.875Z,100905
2014-06-25T18:56:36.375Z,100902
2014-06-25T18:56:54.250Z,100899
2014-06-25T18:57:12.752Z,100899
2014-06-25T18:57:30.486Z,100908
2014-06-25T18:57:48.986Z,100908
2014-06-25T18:58:06.863Z,100902
2014-06-25T18:58:25.379Z,100905
2014-06-25T18:58:43.879Z,100899
2014-06-25T18:59:02.380Z,100911
2014-06-25T18:59:20.880Z,100911
2014-06-25T18:59:39.364Z,100911
2014-06-25T18:59:57.880Z,100908
2014-06-25T19:00:15.616Z,100905
2014-06-25T19:00:34.132Z,100905
2014-06-25T19:00:52.491Z,100917
2014-06-25T19:01:10.994Z,100911
2014-06-25T19:01:29.354Z,100919
2014-06-25T19:01:47.869Z,100908
2014-06-25T19:02:06.231Z,100902
2014-06-25T19:02:24.106Z,100905
2014-06-25T19:02:42.465Z,100914
2014-06-25T19:03:00.965Z,100911
2014-06-25T19:03:19.483Z,100911
2014-06-25T19:03:37.983Z,100914
2014-06-25T19:03:56.498Z,100908
2014-06-25T19:04:15.000Z,100914
2014-06-25T19:04:33.485Z,100914
2014-06-25T19:04:51.360Z,100917
2014-06-25T19:05:09.735Z,100908
2014-06-25T19:05:28.237Z,100917
2014-06-25T19:05:46.737Z,100914
2014-06-25T19:06:04.612Z,100917
2014-06-25T19:06:23.113Z,100911
2014-06-25T19:06:41.644Z,100911
2014-06-25T19:07:00.160Z,100919
2014-06-25T19:07:18.538Z,100916
2014-06-25T19:07:37.038Z,100919
2014-06-25T19:07:55.538Z,100919
2014-06-25T19:08:14.040Z,100922
2014-06-25T19:08:32.540Z,100919
2014-06-25T19:08:51.040Z,100919
2014-06-25T19:09:09.540Z,100922
2014-06-25T19:09:28.041Z,100922
2014-06-25T19:09:46.541Z,100919
2014-06-25T19:10:05.041Z,100919
2014-06-25T19:10:22.918Z,100914
2014-06-25T19:10:41.418Z,100919
2014-06-25T19:10:59.918Z,100922
2014-06-25T19:11:18.420Z,100914
2014-06-25T19:11:36.310Z,100911
2014-06-25T19:11:54.795Z,100919
2014-06-25T19:12:13.328Z,100911
2014-06-25T19:12:31.625Z,100916
2014-06-25T19:12:50.328Z,100908
2014-06-25T19:13:08.828Z,100914
2014-06-25T19:13:27.330Z,100917
2014-06-25T19:13:45.846Z,100914
2014-06-25T19:14:04.346Z,100908
2014-06-25T19:14:22.848Z,100914
2014-06-25T19:14:40.941Z,100914
2014-06-25T19:14:59.269Z,100911
2014-06-25T19:15:17.771Z,100908
2014-06-25T19:15:35.646Z,100914
2014-06-25T19:15:54.021Z,100908
2014-06-25T19:16:12.381Z,100905
2014-06-25T19:16:30.883Z,100908
2014-06-25T19:16:49.383Z,100911
2014-06-25T19:17:07.133Z,100925
2014-06-25T19:17:25.634Z,100911
2014-06-25T19:17:43.509Z,100913
2014-06-25T19:18:02.040Z,100905
2014-06-25T19:18:20.387Z,100916
2014-06-25T19:18:38.746Z,100905
2014-06-25T19:18:57.246Z,100922
2014-06-25T19:19:15.747Z,100913
2014-06-25T19:19:34.263Z,100905
2014-06-25T19:19:52.763Z,100916
2014-06-25T19:20:11.263Z,100922
2014-06-25T19:20:29.765Z,100911
2014-06-25T19:20:48.124Z,100911
2014-06-25T19:21:06.499Z,100911
2014-06-25T19:21:25.002Z,100916
2014-06-25T19:21:43.518Z,100919
2014-06-25T19:22:02.033Z,100911
2014-06-25T19:22:20.534Z,100919
2014-06-25T19:22:39.019Z,100922
2014-06-25T19:22:57.519Z,100916
2014-06-25T19:23:16.021Z,100928
2014-06-25T19:23:34.396Z,100916
2014-06-25T19:23:52.896Z,100916
2014-06-25T19:24:11.396Z,100916
2014-06-25T19:24:29.898Z,100922
2014-06-25T19:24:48.398Z,100925
2014-06-25T19:25:06.273Z,100916
2014-06-25T19:25:24.775Z,100919
2014-06-25T19:25:43.290Z,100913
2014-06-25T19:26:01.775Z,100922
2014-06-25T19:26:20.167Z,100931
2014-06-25T19:26:38.667Z,100922
2014-06-25T19:26:57.183Z,100916
2014-06-25T19:27:15.668Z,100931
2014-06-25T19:27:34.043Z,100925
2014-06-25T19:27:52.434Z,100928
2014-06-25T19:28:10.809Z,100928
2014-06-25T19:28:29.311Z,100931
2014-06-25T19:28:47.811Z,100928
2014-06-25T19:29:06.170Z,100928
2014-06-25T19:29:24.673Z,100934
2014-06-25T19:29:43.048Z,100928
2014-06-25T19:30:01.439Z,100922
2014-06-25T19:30:19.628Z,100928
2014-06-25T19:30:37.565Z,100934
2014-06-25T19:30:56.065Z,100936
2014-06-25T19:31:14.567Z,100928
2014-06-25T19:31:33.067Z,100934
2014-06-25T19:31:51.583Z,100931
2014-06-25T19:32:10.098Z,100934
2014-06-25T19:32:28.616Z,100928
2014-06-25T19:32:47.100Z,100934
2014-06-25T19:33:05.616Z,100936
2014-06-25T19:33:24.135Z,100925
2014-06-25T19:33:42.635Z,100931
2014-06-25T19:34:01.135Z,100934
2014-06-25T19:34:19.511Z,100934
2014-06-25T19:34:38.011Z,100931
2014-06-25T19:34:56.511Z,100945
2014-06-25T19:35:15.028Z,100939
2014-06-25T19:35:33.638Z,100934
2014-06-25T19:35:52.138Z,100934
2014-06-25T19:36:10.684Z,100951
2014-06-25T19:36:29.046Z,100936
2014-06-25T19:36:47.421Z,100942
2014-06-25T19:37:05.936Z,100933
2014-06-25T19:37:24.298Z,100951
2014-06-25T19:37:42.813Z,100936
2014-06-25T19:38:01.313Z,100939
2014-06-25T19:38:19.815Z,100951
2014-06-25T19:38:38.315Z,100945
2014-06-25T19:38:56.722Z,100945
2014-06-25T19:39:15.239Z,100948
2014-06-25T19:39:33.677Z,100945
2014-06-25T19:39:52.177Z,100951
2014-06-25T19:40:10.552Z,100959
2014-06-25T19:40:29.054Z,100945
2014-06-25T19:40:47.554Z,100948
2014-06-25T19:41:06.054Z,100948
2014-06-25T19:41:24.556Z,100954
2014-06-25T19:41:43.056Z,100948
2014-06-25T19:42:00.931Z,100954
2014-06-25T19:42:19.432Z,100960
2014-06-25T19:42:37.932Z,100951
2014-06-25T19:42:56.307Z,100954
2014-06-25T19:43:14.810Z,100954
2014-06-25T19:43:33.310Z,100951
2014-06-25T19:43:51.685Z,100951
2014-06-25T19:44:10.185Z,100960
2014-06-25T19:44:28.686Z,100954
2014-06-25T19:44:47.186Z,100957
2014-06-25T19:45:05.686Z,100954
2014-06-25T19:45:24.047Z,100948
2014-06-25T19:45:42.563Z,100951
2014-06-25T19:46:01.063Z,100960
2014-06-25T19:46:19.565Z,100957
2014-06-25T19:46:37.424Z,100951
2014-06-25T19:46:55.940Z,100951
2014-06-25T19:47:13.799Z,100945
2014-06-25T19:47:32.176Z,100954
2014-06-25T19:47:50.676Z,100954
2014-06-25T19:48:09.254Z,100948
2014-06-25T19:48:26.992Z,100960
2014-06-25T19:48:45.367Z,100954
2014-06-25T19:49:03.273Z,100948
2014-06-25T19:49:21.649Z,100942
2014-06-25T19:49:40.133Z,100954
2014-06-25T19:49:58.633Z,100948
2014-06-25T19:50:17.010Z,100957
2014-06-25T19:50:35.370Z,100945
2014-06-25T19:50:53.870Z,100948
2014-06-25T19:51:12.245Z,100948
2014-06-25T19:51:30.747Z,100954
2014-06-25T19:51:48.622Z,100951
2014-06-25T19:52:07.122Z,100954
